sensor_id;sensor_type;location;lat;lon;timestamp;pressure;altitude;pressure_sealevel;temperature;humidity
39823;BME280;25499;53.958;10.970;2022-11-21T07:33:00;100303.94;;;-1.14;100.00
39823;BME280;25499;53.958;10.970;2022-11-21T07:35:26;100294.13;;;-1.25;100.00
39823;BME280;25499;53.958;10.970;2022-11-21T07:37:52;100295.75;;;-1.27;100.00
39823;BME280;25499;53.958;10.970;2022-11-21T07:40:18;100302.06;;;-1.18;100.00
39823;BME280;25499;53.958;10.970;2022-11-21T07:42:43;100302.50;;;-1.05;100.00
39823;BME280;25499;53.958;10.970;2022-11-21T07:45:10;100302.19;;;-1.15;100.00
39823;BME280;25499;53.958;10.970;2022-11-21T07:47:36;100302.19;;;-1.15;100.00
39823;BME280;25499;53.958;10.970;2022-11-21T07:50:01;100299.31;;;-1.00;100.00
39823;BME280;25499;53.958;10.970;2022-11-21T07:52:27;100293.97;;;-1.06;100.00
39823;BME280;25499;53.958;10.970;2022-11-21T07:54:57;100301.75;;;-1.03;100.00
39823;BME280;25499;53.958;10.970;2022-11-21T07:57:23;100299.16;;;-1.04;100.00
39823;BME280;25499;53.958;10.970;2022-11-21T07:59:48;100290.50;;;-1.08;100.00
39823;BME280;25499;53.958;10.970;2022-11-21T08:02:27;100293.25;;;-1.03;100.00
39823;BME280;25499;53.958;10.970;2022-11-21T08:04:53;100290.38;;;-1.11;100.00
39823;BME280;25499;53.958;10.970;2022-11-21T08:07:20;100289.66;;;-1.08;99.88
39823;BME280;25499;53.958;10.970;2022-11-21T08:09:46;100293.66;;;-1.15;99.65
39823;BME280;25499;53.958;10.970;2022-11-21T08:12:12;100296.59;;;-1.04;99.64
39823;BME280;25499;53.958;10.970;2022-11-21T08:14:38;100286.75;;;-1.18;99.52
39823;BME280;25499;53.958;10.970;2022-11-21T08:17:04;100290.56;;;-1.06;99.29
39823;BME280;25499;53.958;10.970;2022-11-21T08:19:30;100286.19;;;-1.09;98.88
39823;BME280;25499;53.958;10.970;2022-11-21T08:21:56;100295.78;;;-1.03;98.98
39823;BME280;25499;53.958;10.970;2022-11-21T08:24:21;100285.53;;;-1.05;98.92
39823;BME280;25499;53.958;10.970;2022-11-21T08:26:47;100292.75;;;-0.93;99.11
39823;BME280;25499;53.958;10.970;2022-11-21T08:29:13;100299.94;;;-0.83;98.70
39823;BME280;25499;53.958;10.970;2022-11-21T08:31:42;100293.47;;;-0.73;98.36
39823;BME280;25499;53.958;10.970;2022-11-21T08:34:09;100285.78;;;-0.73;98.00
39823;BME280;25499;53.958;10.970;2022-11-21T08:36:35;100287.06;;;-0.60;97.84
39823;BME280;25499;53.958;10.970;2022-11-21T08:39:01;100281.09;;;-0.61;97.28
39823;BME280;25499;53.958;10.970;2022-11-21T08:41:26;100292.28;;;-0.57;97.21
39823;BME280;25499;53.958;10.970;2022-11-21T08:44:10;100287.19;;;-0.57;97.14
39823;BME280;25499;53.958;10.970;2022-11-21T08:46:36;100286.97;;;-0.63;96.80
39823;BME280;25499;53.958;10.970;2022-11-21T08:49:05;100290.72;;;-0.53;96.79
39823;BME280;25499;53.958;10.970;2022-11-21T08:51:32;100286.97;;;-0.38;96.96
39823;BME280;25499;53.958;10.970;2022-11-21T08:53:58;100284.97;;;-0.46;96.67
39823;BME280;25499;53.958;10.970;2022-11-21T08:56:23;100285.88;;;-0.46;96.78
39823;BME280;25499;53.958;10.970;2022-11-21T08:58:49;100288.25;;;-0.50;96.96
39823;BME280;25499;53.958;10.970;2022-11-21T09:01:14;100294.19;;;-0.51;97.00
39823;BME280;25499;53.958;10.970;2022-11-21T09:03:40;100289.19;;;-0.48;97.07
39823;BME280;25499;53.958;10.970;2022-11-21T09:06:05;100285.44;;;-0.58;96.66
39823;BME280;25499;53.958;10.970;2022-11-21T09:08:31;100289.78;;;-0.55;97.02
39823;BME280;25499;53.958;10.970;2022-11-21T09:10:57;100290.34;;;-0.64;97.03
39823;BME280;25499;53.958;10.970;2022-11-21T09:13:22;100289.63;;;-0.60;97.11
39823;BME280;25499;53.958;10.970;2022-11-21T09:15:48;100293.94;;;-0.59;96.94
39823;BME280;25499;53.958;10.970;2022-11-21T09:18:32;100287.78;;;-0.64;96.84
39823;BME280;25499;53.958;10.970;2022-11-21T09:20:57;100289.78;;;-0.55;96.89
39823;BME280;25499;53.958;10.970;2022-11-21T09:23:23;100287.28;;;-0.54;96.88
39823;BME280;25499;53.958;10.970;2022-11-21T09:25:48;100289.84;;;-0.54;96.40
39823;BME280;25499;53.958;10.970;2022-11-21T09:28:14;100294.91;;;-0.55;96.82
39823;BME280;25499;53.958;10.970;2022-11-21T09:30:40;100294.75;;;-0.60;96.48
39823;BME280;25499;53.958;10.970;2022-11-21T09:33:09;100300.75;;;-0.58;96.58
39823;BME280;25499;53.958;10.970;2022-11-21T09:35:35;100305.78;;;-0.61;96.53
39823;BME280;25499;53.958;10.970;2022-11-21T09:38:01;100312.91;;;-0.52;96.59
39823;BME280;25499;53.958;10.970;2022-11-21T09:40:28;100314.91;;;-0.44;96.43
39823;BME280;25499;53.958;10.970;2022-11-21T09:42:59;100312.91;;;-0.52;96.25
39823;BME280;25499;53.958;10.970;2022-11-21T09:45:37;100315.72;;;-0.45;96.25
39823;BME280;25499;53.958;10.970;2022-11-21T09:48:13;100300.19;;;-0.51;96.28
39823;BME280;25499;53.958;10.970;2022-11-21T09:50:46;100303.03;;;-0.42;96.12
39823;BME280;25499;53.958;10.970;2022-11-21T09:53:20;100309.94;;;-0.39;95.90
39823;BME280;25499;53.958;10.970;2022-11-21T09:55:56;100308.31;;;-0.37;95.66
39823;BME280;25499;53.958;10.970;2022-11-21T09:58:46;100305.81;;;-0.35;95.46
39823;BME280;25499;53.958;10.970;2022-11-21T10:01:14;100303.94;;;-0.40;95.28
39823;BME280;25499;53.958;10.970;2022-11-21T10:03:42;100307.03;;;-0.24;95.51
39823;BME280;25499;53.958;10.970;2022-11-21T10:06:23;100302.63;;;-0.28;94.96
39823;BME280;25499;53.958;10.970;2022-11-21T10:09:17;100299.34;;;-0.24;94.38
39823;BME280;25499;53.958;10.970;2022-11-21T10:12:03;100312.16;;;0.03;94.11
39823;BME280;25499;53.958;10.970;2022-11-21T10:23:09;100290.03;;;0.04;92.19
39823;BME280;25499;53.958;10.970;2022-11-21T10:25:47;100294.63;;;0.14;91.68
39823;BME280;25499;53.958;10.970;2022-11-21T10:30:43;100283.56;;;0.44;90.57
39823;BME280;25499;53.958;10.970;2022-11-21T10:33:22;100274.56;;;0.28;89.93
39823;BME280;25499;53.958;10.970;2022-11-21T10:35:54;100278.44;;;0.44;88.97
39823;BME280;25499;53.958;10.970;2022-11-21T10:38:23;100276.06;;;0.79;88.86
39823;BME280;25499;53.958;10.970;2022-11-21T10:46:07;100274.09;;;1.32;85.80
39823;BME280;25499;53.958;10.970;2022-11-21T10:48:33;100283.28;;;1.91;84.54
39823;BME280;25499;53.958;10.970;2022-11-21T10:51:22;100259.34;;;1.92;82.55
39823;BME280;25499;53.958;10.970;2022-11-21T10:53:44;100258.44;;;1.90;81.85
39823;BME280;25499;53.958;10.970;2022-11-21T10:56:28;100267.97;;;1.94;80.95
39823;BME280;25499;53.958;10.970;2022-11-21T10:58:57;100278.50;;;2.44;80.58
39823;BME280;25499;53.958;10.970;2022-11-21T11:01:31;100280.41;;;2.53;79.63
39823;BME280;25499;53.958;10.970;2022-11-21T11:06:42;100281.66;;;2.70;78.77
39823;BME280;25499;53.958;10.970;2022-11-21T11:09:33;100271.72;;;3.31;77.19
39823;BME280;25499;53.958;10.970;2022-11-21T11:12:22;100284.44;;;3.72;75.03
39823;BME280;25499;53.958;10.970;2022-11-21T11:14:53;100275.03;;;4.92;71.42
39823;BME280;25499;53.958;10.970;2022-11-21T11:17:31;100260.06;;;5.41;68.28
39823;BME280;25499;53.958;10.970;2022-11-21T11:20:06;100263.69;;;6.86;65.56
39823;BME280;25499;53.958;10.970;2022-11-21T11:22:51;100256.97;;;7.70;61.29
39823;BME280;25499;53.958;10.970;2022-11-21T11:25:16;100260.03;;;9.26;57.98
39823;BME280;25499;53.958;10.970;2022-11-21T11:27:41;100268.59;;;11.22;52.86
39823;BME280;25499;53.958;10.970;2022-11-21T11:30:12;100271.84;;;13.34;50.26
39823;BME280;25499;53.958;10.970;2022-11-21T11:32:39;100229.94;;;12.97;46.99
39823;BME280;25499;53.958;10.970;2022-11-21T11:37:40;100229.38;;;11.87;47.55
39823;BME280;25499;53.958;10.970;2022-11-21T11:40:29;100220.69;;;7.67;51.53
39823;BME280;25499;53.958;10.970;2022-11-21T11:48:36;100225.88;;;7.33;53.06
39823;BME280;25499;53.958;10.970;2022-11-21T11:51:17;100264.31;;;10.45;55.40
39823;BME280;25499;53.958;10.970;2022-11-21T11:53:50;100240.59;;;10.73;50.20
39823;BME280;25499;53.958;10.970;2022-11-21T11:56:25;100231.09;;;11.34;49.62
39823;BME280;25499;53.958;10.970;2022-11-21T12:01:18;100210.00;;;6.31;57.58
39823;BME280;25499;53.958;10.970;2022-11-21T12:12:34;100238.81;;;7.39;59.81
39823;BME280;25499;53.958;10.970;2022-11-21T12:23:12;100218.91;;;7.17;60.23
39823;BME280;25499;53.958;10.970;2022-11-21T12:31:44;100187.81;;;8.18;54.42
39823;BME280;25499;53.958;10.970;2022-11-21T12:37:09;100176.03;;;5.79;58.29
39823;BME280;25499;53.958;10.970;2022-11-21T12:39:59;100176.19;;;4.23;62.14
39823;BME280;25499;53.958;10.970;2022-11-21T12:42:40;100179.84;;;3.24;66.32
39823;BME280;25499;53.958;10.970;2022-11-21T12:57:19;100209.59;;;2.24;76.40
39823;BME280;25499;53.958;10.970;2022-11-21T13:05:40;100222.44;;;1.86;78.84
39823;BME280;25499;53.958;10.970;2022-11-21T13:08:20;100223.44;;;1.93;79.36
39823;BME280;25499;53.958;10.970;2022-11-21T13:11:10;100226.41;;;1.74;79.42
39823;BME280;25499;53.958;10.970;2022-11-21T13:14:15;100214.44;;;1.74;80.25
39823;BME280;25499;53.958;10.970;2022-11-21T13:16:49;100219.81;;;1.83;81.08
39823;BME280;25499;53.958;10.970;2022-11-21T13:27:42;100198.66;;;1.22;82.62
39823;BME280;25499;53.958;10.970;2022-11-21T13:32:47;100201.28;;;0.92;83.98
39823;BME280;25499;53.958;10.970;2022-11-21T13:57:03;100190.97;;;0.59;86.28
39823;BME280;25499;53.958;10.970;2022-11-21T14:00:00;100186.97;;;0.68;86.60
39823;BME280;25499;53.958;10.970;2022-11-21T14:08:22;100180.63;;;0.55;87.56
39823;BME280;25499;53.958;10.970;2022-11-21T14:10:50;100179.19;;;0.65;87.80
39823;BME280;25499;53.958;10.970;2022-11-21T14:13:30;100175.88;;;0.69;87.55
39823;BME280;25499;53.958;10.970;2022-11-21T14:18:45;100186.53;;;0.53;88.09
39823;BME280;25499;53.958;10.970;2022-11-21T14:21:21;100168.00;;;0.31;88.18
39823;BME280;25499;53.958;10.970;2022-11-21T14:23:52;100170.19;;;0.48;88.45
39823;BME280;25499;53.958;10.970;2022-11-21T14:26:19;100170.00;;;0.42;88.63
39823;BME280;25499;53.958;10.970;2022-11-21T14:28:45;100169.47;;;0.53;88.82
39823;BME280;25499;53.958;10.970;2022-11-21T14:31:12;100162.75;;;0.57;88.81
39823;BME280;25499;53.958;10.970;2022-11-21T14:33:45;100159.28;;;0.55;88.91
39823;BME280;25499;53.958;10.970;2022-11-21T14:36:18;100168.44;;;0.47;89.51
39823;BME280;25499;53.958;10.970;2022-11-21T14:38:51;100170.13;;;0.46;89.89
39823;BME280;25499;53.958;10.970;2022-11-21T14:46:31;100171.81;;;0.15;91.44
39823;BME280;25499;53.958;10.970;2022-11-21T14:51:47;100176.59;;;0.05;91.92
39823;BME280;25499;53.958;10.970;2022-11-21T14:55:01;100174.88;;;0.04;92.27
39823;BME280;25499;53.958;10.970;2022-11-21T14:57:03;100169.06;;;-0.20;92.62
39823;BME280;25499;53.958;10.970;2022-11-21T14:59:36;100174.50;;;-0.09;93.04
39823;BME280;25499;53.958;10.970;2022-11-21T15:02:10;100159.63;;;-0.21;93.12
39823;BME280;25499;53.958;10.970;2022-11-21T15:04:36;100172.06;;;-0.33;93.44
39823;BME280;25499;53.958;10.970;2022-11-21T15:07:03;100163.56;;;-0.32;93.80
39823;BME280;25499;53.958;10.970;2022-11-21T15:09:29;100160.00;;;-0.37;94.23
39823;BME280;25499;53.958;10.970;2022-11-21T15:11:59;100167.56;;;-0.40;94.55
39823;BME280;25499;53.958;10.970;2022-11-21T15:14:50;100172.53;;;-0.45;95.18
39823;BME280;25499;53.958;10.970;2022-11-21T15:17:21;100177.38;;;-0.54;95.59
39823;BME280;25499;53.958;10.970;2022-11-21T15:20:03;100177.53;;;-0.48;95.97
39823;BME280;25499;53.958;10.970;2022-11-21T15:22:34;100180.09;;;-0.48;96.21
39823;BME280;25499;53.958;10.970;2022-11-21T15:25:14;100171.41;;;-0.53;96.78
39823;BME280;25499;53.958;10.970;2022-11-21T15:27:41;100185.59;;;-0.63;97.04
39823;BME280;25499;53.958;10.970;2022-11-21T15:35:55;100188.56;;;-0.76;99.00
39823;BME280;25499;53.958;10.970;2022-11-21T15:48:41;100185.03;;;-0.80;100.00
39823;BME280;25499;53.958;10.970;2022-11-21T15:51:10;100179.72;;;-0.86;100.00
39823;BME280;25499;53.958;10.970;2022-11-21T15:53:37;100193.41;;;-0.84;100.00
39823;BME280;25499;53.958;10.970;2022-11-21T15:56:03;100181.50;;;-0.83;100.00
39823;BME280;25499;53.958;10.970;2022-11-21T15:58:29;100187.50;;;-0.83;100.00
39823;BME280;25499;53.958;10.970;2022-11-21T16:00:54;100185.84;;;-0.81;100.00
39823;BME280;25499;53.958;10.970;2022-11-21T16:03:20;100181.75;;;-1.01;100.00
39823;BME280;25499;53.958;10.970;2022-11-21T16:05:45;100180.22;;;-0.96;100.00
39823;BME280;25499;53.958;10.970;2022-11-21T16:08:10;100175.34;;;-1.14;100.00
39823;BME280;25499;53.958;10.970;2022-11-21T16:10:36;100181.31;;;-0.89;100.00
39823;BME280;25499;53.958;10.970;2022-11-21T16:13:01;100170.63;;;-1.03;100.00
39823;BME280;25499;53.958;10.970;2022-11-21T16:15:27;100170.41;;;-1.09;100.00
